Time;durP1;ratioP1;P1;durP2;ratioP2;P2;SDS_P1;SDS_P2;PMS_P1;PMS_P2;Temp;Humidity;BMP_temperature;BMP_pressure;BME280_temperature;BME280_humidity;BME280_pressure;Samples;Min_cycle;Max_cycle;Signal;HPM_P1;HPM_P2
2022/10/04 00:00:26;;;;;;;;;;;20.10;99.90;;;;;;5136092;27;19903;-73
2022/10/04 00:03:15;;;;;;;;;;;20.20;99.90;;;;;;5144889;27;19907;-72
2022/10/04 00:05:58;;;;;;;;;;;20.10;99.90;;;;;;5153417;27;19907;-73
2022/10/04 00:08:28;;;;;;;;;;;20.10;99.90;;;;;;5154299;27;20271;-72
2022/10/04 00:11:01;;;;;;;;;;;20.00;99.90;;;;;;5135564;27;19915;-72
2022/10/04 00:13:28;;;;;;;;;;;20.00;99.90;;;;;;5154024;27;19915;-72
2022/10/04 00:15:53;;;;;;;;;;;20.00;99.90;;;;;;5153948;27;19919;-73
2022/10/04 00:18:21;;;;;;;;;;;19.90;99.90;;;;;;5154362;27;19910;-72
2022/10/04 00:20:49;;;;;;;;;;;19.90;99.90;;;;;;5154090;27;19946;-73
2022/10/04 00:23:24;;;;;;;;;;;19.90;99.90;;;;;;5154129;27;19909;-71
2022/10/04 00:25:50;;;;;;;;;;;19.80;99.90;;;;;;5153850;27;19945;-72
2022/10/04 00:28:19;;;;;;;;;;;19.70;99.90;;;;;;5153730;27;20053;-73
2022/10/04 00:31:04;;;;;;;;;;;19.70;99.90;;;;;;5153626;27;19915;-72
2022/10/04 00:33:34;;;;;;;;;;;19.60;99.90;;;;;;5153586;27;20002;-72
2022/10/04 00:35:59;;;;;;;;;;;19.70;99.90;;;;;;5153771;27;19903;-72
2022/10/04 00:38:27;;;;;;;;;;;19.60;99.90;;;;;;5153535;27;19903;-72
2022/10/04 00:40:54;;;;;;;;;;;19.60;99.90;;;;;;5153590;27;19903;-73
2022/10/04 00:43:27;;;;;;;;;;;19.60;99.90;;;;;;5153513;27;19980;-72
2022/10/04 00:46:01;;;;;;;;;;;19.60;99.90;;;;;;5153719;27;19913;-72
2022/10/04 00:48:38;;;;;;;;;;;19.60;99.90;;;;;;5153385;27;20249;-72
2022/10/04 00:51:04;;;;;;;;;;;19.50;99.90;;;;;;5153095;27;19970;-73
2022/10/04 00:53:30;;;;;;;;;;;19.50;99.90;;;;;;5153257;27;19982;-73
2022/10/04 00:55:58;;;;;;;;;;;19.50;99.90;;;;;;5152982;27;19903;-72
2022/10/04 00:58:26;;;;;;;;;;;19.50;99.90;;;;;;5151649;27;20316;-72
2022/10/04 01:00:53;;;;;;;;;;;19.50;99.90;;;;;;5153153;27;19910;-72
2022/10/04 01:03:38;;;;;;;;;;;19.50;99.90;;;;;;5153171;27;19971;-73
2022/10/04 01:06:05;;;;;;;;;;;19.50;99.90;;;;;;5153104;27;19903;-72
2022/10/04 01:08:34;;;;;;;;;;;19.50;99.90;;;;;;5134279;27;20009;-73
2022/10/04 01:11:06;;;;;;;;;;;19.40;99.90;;;;;;5153158;27;20005;-72
2022/10/04 01:13:39;;;;;;;;;;;19.50;99.90;;;;;;5153419;27;19910;-72
2022/10/04 01:16:11;;;;;;;;;;;19.50;99.90;;;;;;5152830;27;19921;-72
2022/10/04 01:18:37;;;;;;;;;;;19.40;99.90;;;;;;5153110;27;19910;-72
2022/10/04 01:21:07;;;;;;;;;;;19.40;99.90;;;;;;5153254;27;19960;-72
2022/10/04 01:23:36;;;;;;;;;;;19.30;99.90;;;;;;5153318;27;19957;-73
2022/10/04 01:26:21;;;;;;;;;;;19.30;99.90;;;;;;5152751;27;19906;-73
2022/10/04 01:28:47;;;;;;;;;;;19.30;99.90;;;;;;5152727;27;19938;-72
2022/10/04 01:31:14;;;;;;;;;;;19.30;99.90;;;;;;5133889;27;19937;-72
2022/10/04 01:33:40;;;;;;;;;;;19.30;99.90;;;;;;5152977;27;19907;-73
2022/10/04 01:36:06;;;;;;;;;;;19.40;99.90;;;;;;5152761;27;19910;-72
2022/10/04 01:38:32;;;;;;;;;;;19.40;99.90;;;;;;5152855;27;19909;-73
2022/10/04 01:40:59;;;;;;;;;;;19.40;99.90;;;;;;5152791;27;20305;-72
2022/10/04 01:43:29;;;;;;;;;;;19.40;99.90;;;;;;5152830;27;19907;-72
2022/10/04 01:45:57;;;;;;;;;;;19.30;99.90;;;;;;5152524;27;19903;-72
2022/10/04 01:48:25;;;;;;;;;;;19.30;99.90;;;;;;5152914;27;19907;-72
2022/10/04 01:51:02;;;;;;;;;;;19.20;99.90;;;;;;5152513;27;19911;-72
2022/10/04 01:53:29;;;;;;;;;;;19.20;99.90;;;;;;5152733;27;19903;-73
2022/10/04 01:56:06;;;;;;;;;;;19.20;99.90;;;;;;5152509;27;20001;-72
2022/10/04 01:58:34;;;;;;;;;;;19.10;99.90;;;;;;5133746;27;20009;-72
2022/10/04 02:01:05;;;;;;;;;;;19.10;99.90;;;;;;5154985;27;19997;-72
2022/10/04 02:03:34;;;;;;;;;;;19.10;99.90;;;;;;5156986;27;19910;-72
2022/10/04 02:06:02;;;;;;;;;;;19.00;99.90;;;;;;5156694;27;20343;-73
2022/10/04 02:08:32;;;;;;;;;;;19.00;99.90;;;;;;5155034;27;19903;-72
2022/10/04 02:10:59;;;;;;;;;;;19.00;99.90;;;;;;5156831;27;20001;-72
2022/10/04 02:13:28;;;;;;;;;;;19.00;99.90;;;;;;5156569;27;20001;-72
2022/10/04 02:15:54;;;;;;;;;;;19.00;99.90;;;;;;5156101;27;19926;-72
2022/10/04 02:18:21;;;;;;;;;;;19.10;99.90;;;;;;5156384;27;19910;-72
2022/10/04 02:20:48;;;;;;;;;;;19.10;99.90;;;;;;5156440;27;19915;-72
2022/10/04 02:23:16;;;;;;;;;;;19.10;99.90;;;;;;5156494;27;19943;-72
2022/10/04 02:25:42;;;;;;;;;;;19.10;99.90;;;;;;5155355;27;20339;-72
2022/10/04 02:28:12;;;;;;;;;;;19.10;99.90;;;;;;5155243;27;19914;-73
2022/10/04 02:30:40;;;;;;;;;;;19.10;99.90;;;;;;5154919;27;20347;-72
2022/10/04 02:33:06;;;;;;;;;;;19.10;99.90;;;;;;5155221;27;20237;-72
2022/10/04 02:35:35;;;;;;;;;;;19.20;99.90;;;;;;5155412;27;20318;-72
2022/10/04 02:38:21;;;;;;;;;;;19.20;99.90;;;;;;5155544;27;20326;-72
2022/10/04 02:40:47;;;;;;;;;;;19.20;99.90;;;;;;5155288;27;19950;-73
2022/10/04 02:43:17;;;;;;;;;;;19.10;99.90;;;;;;5155446;27;19906;-71
2022/10/04 02:46:07;;;;;;;;;;;19.20;99.90;;;;;;5155123;27;19907;-72
2022/10/04 02:48:38;;;;;;;;;;;19.20;99.90;;;;;;5155150;27;19907;-72
2022/10/04 02:51:13;;;;;;;;;;;19.20;99.90;;;;;;5136066;27;19918;-72
2022/10/04 02:53:49;;;;;;;;;;;19.20;99.90;;;;;;5136040;27;19903;-72
2022/10/04 02:56:16;;;;;;;;;;;19.10;99.90;;;;;;5153719;27;19910;-73
2022/10/04 02:58:42;;;;;;;;;;;19.10;99.90;;;;;;5136920;27;20423;-72
2022/10/04 03:01:14;;;;;;;;;;;19.10;99.90;;;;;;5155733;27;19903;-72
2022/10/04 03:03:58;;;;;;;;;;;19.10;99.90;;;;;;5155412;27;19909;-72
2022/10/04 03:06:29;;;;;;;;;;;19.10;99.90;;;;;;5136688;27;20260;-72
2022/10/04 03:08:58;;;;;;;;;;;19.10;99.90;;;;;;5155567;27;19907;-72
2022/10/04 03:11:26;;;;;;;;;;;19.10;99.90;;;;;;5135551;27;20003;-73
2022/10/04 03:13:53;;;;;;;;;;;19.20;99.90;;;;;;5155684;27;20356;-72
2022/10/04 03:16:20;;;;;;;;;;;19.10;99.90;;;;;;5154979;27;19915;-72
2022/10/04 03:18:47;;;;;;;;;;;19.10;99.90;;;;;;5155393;27;20303;-73
2022/10/04 03:21:26;;;;;;;;;;;19.10;99.90;;;;;;5155120;27;19903;-72
2022/10/04 03:23:52;;;;;;;;;;;19.10;99.90;;;;;;5155387;27;19910;-72
2022/10/04 03:26:24;;;;;;;;;;;19.10;99.90;;;;;;5156120;27;19903;-72
2022/10/04 03:28:50;;;;;;;;;;;19.10;99.90;;;;;;5137283;27;20010;-72
2022/10/04 03:31:18;;;;;;;;;;;19.10;99.90;;;;;;5156114;27;20002;-72
2022/10/04 03:33:45;;;;;;;;;;;19.10;99.90;;;;;;5155884;27;19910;-73
2022/10/04 03:36:17;;;;;;;;;;;19.00;99.90;;;;;;5155364;27;19951;-73
2022/10/04 03:38:45;;;;;;;;;;;19.00;99.90;;;;;;5153926;27;19954;-72
2022/10/04 03:41:11;;;;;;;;;;;19.00;99.90;;;;;;5155371;27;20019;-72
2022/10/04 03:43:40;;;;;;;;;;;19.00;99.90;;;;;;5155117;27;19993;-72
2022/10/04 03:46:07;;;;;;;;;;;19.00;99.90;;;;;;5154765;27;19903;-72
2022/10/04 03:48:34;;;;;;;;;;;19.00;99.90;;;;;;5155345;27;19989;-72
2022/10/04 03:51:03;;;;;;;;;;;19.10;99.90;;;;;;5155413;27;19911;-72
2022/10/04 03:53:42;;;;;;;;;;;19.00;99.90;;;;;;5136881;27;19911;-72
2022/10/04 03:56:11;;;;;;;;;;;19.00;99.90;;;;;;5155323;27;19903;-73
2022/10/04 03:58:37;;;;;;;;;;;19.00;99.90;;;;;;5136535;27;19903;-72
2022/10/04 04:01:13;;;;;;;;;;;19.00;99.90;;;;;;5137002;27;20403;-72
2022/10/04 04:03:55;;;;;;;;;;;19.00;99.90;;;;;;5153636;27;19925;-72
2022/10/04 04:06:22;;;;;;;;;;;19.00;99.90;;;;;;5155459;27;19903;-72
2022/10/04 04:08:51;;;;;;;;;;;19.00;99.90;;;;;;5155147;27;19903;-72
2022/10/04 04:11:22;;;;;;;;;;;19.00;99.90;;;;;;5155309;27;19971;-72
2022/10/04 04:13:55;;;;;;;;;;;19.00;99.90;;;;;;5154992;27;20031;-73
2022/10/04 04:16:24;;;;;;;;;;;19.10;99.90;;;;;;5155129;27;20010;-72
2022/10/04 04:18:51;;;;;;;;;;;19.10;99.90;;;;;;5156155;27;19903;-72
2022/10/04 04:21:18;;;;;;;;;;;19.20;99.90;;;;;;5154115;27;20454;-72
2022/10/04 04:23:56;;;;;;;;;;;19.20;99.90;;;;;;5136468;27;19903;-72
2022/10/04 04:26:26;;;;;;;;;;;19.20;99.90;;;;;;5155875;27;20359;-72
2022/10/04 04:28:57;;;;;;;;;;;19.20;99.90;;;;;;5155231;27;19903;-72
2022/10/04 04:31:28;;;;;;;;;;;19.20;99.90;;;;;;5155529;27;19994;-72
2022/10/04 04:33:58;;;;;;;;;;;19.20;99.90;;;;;;5155356;27;19998;-72
2022/10/04 04:36:24;;;;;;;;;;;19.10;99.90;;;;;;5155143;27;19903;-72
2022/10/04 04:41:39;;;;;;;;;;;19.10;99.90;;;;;;5107140;27;19903;-73
2022/10/04 04:44:15;;;;;;;;;;;19.10;99.90;;;;;;5155136;27;19947;-72
2022/10/04 04:46:42;;;;;;;;;;;19.10;99.90;;;;;;5155186;27;20025;-72
2022/10/04 04:49:09;;;;;;;;;;;19.10;99.90;;;;;;5136081;27;20350;-73
2022/10/04 04:51:36;;;;;;;;;;;19.10;99.90;;;;;;5154884;27;19907;-72
2022/10/04 04:54:03;;;;;;;;;;;19.10;99.90;;;;;;5154476;27;19903;-72
2022/10/04 04:56:29;;;;;;;;;;;19.10;99.90;;;;;;5154967;27;19985;-72
2022/10/04 04:58:58;;;;;;;;;;;19.10;99.90;;;;;;5154874;27;19903;-73
2022/10/04 05:01:27;;;;;;;;;;;19.10;99.90;;;;;;5154071;27;20382;-72
2022/10/04 05:04:14;;;;;;;;;;;19.10;99.90;;;;;;5154335;27;19907;-73
2022/10/04 05:06:41;;;;;;;;;;;19.20;99.90;;;;;;5154721;27;19903;-72
2022/10/04 05:09:26;;;;;;;;;;;19.20;99.90;;;;;;5154313;27;19926;-72
2022/10/04 05:11:53;;;;;;;;;;;19.10;99.90;;;;;;5154807;27;19947;-72
2022/10/04 05:14:20;;;;;;;;;;;19.20;99.90;;;;;;5135769;27;20028;-72
2022/10/04 05:16:47;;;;;;;;;;;19.20;99.90;;;;;;5154505;27;19915;-73
2022/10/04 05:19:26;;;;;;;;;;;19.20;99.90;;;;;;5155137;27;19914;-72
2022/10/04 05:21:53;;;;;;;;;;;19.20;99.90;;;;;;5154846;27;19903;-72
2022/10/04 05:24:26;;;;;;;;;;;19.20;99.90;;;;;;5155172;27;19998;-72
2022/10/04 05:26:57;;;;;;;;;;;19.20;99.90;;;;;;5154014;27;19994;-73
2022/10/04 05:29:25;;;;;;;;;;;19.20;99.90;;;;;;5154649;27;19911;-72
2022/10/04 05:31:55;;;;;;;;;;;19.30;99.90;;;;;;5153947;27;20039;-72
2022/10/04 05:34:23;;;;;;;;;;;19.30;99.90;;;;;;5153739;27;19990;-72
2022/10/04 05:36:56;;;;;;;;;;;19.30;99.90;;;;;;5135121;27;20368;-72
2022/10/04 05:39:35;;;;;;;;;;;19.60;99.90;;;;;;5154615;27;19903;-73
2022/10/04 05:42:16;;;;;;;;;;;20.30;99.90;;;;;;5152715;27;19903;-73
2022/10/04 05:44:45;;;;;;;;;;;21.30;99.90;;;;;;5154022;27;19946;-73
2022/10/04 05:47:13;;;;;;;;;;;22.10;99.90;;;;;;5154131;27;19910;-72
2022/10/04 05:49:42;;;;;;;;;;;22.60;99.90;;;;;;5153345;27;19930;-73
2022/10/04 05:52:34;;;;;;;;;;;23.10;99.90;;;;;;5153840;27;20287;-73
2022/10/04 05:55:18;;;;;;;;;;;23.40;99.90;;;;;;5149434;27;19903;-73
2022/10/04 05:58:02;;;;;;;;;;;23.90;99.90;;;;;;5153024;27;20002;-73
2022/10/04 06:00:34;;;;;;;;;;;24.20;99.90;;;;;;5153157;27;19940;-73
2022/10/04 06:03:18;;;;;;;;;;;24.80;99.90;;;;;;5153483;27;20326;-72
2022/10/04 06:05:54;;;;;;;;;;;24.70;99.90;;;;;;5134949;27;20318;-72
2022/10/04 06:08:28;;;;;;;;;;;24.80;99.90;;;;;;5151943;27;19998;-73
2022/10/04 06:10:57;;;;;;;;;;;24.80;99.90;;;;;;5135029;27;19919;-74
2022/10/04 06:13:50;;;;;;;;;;;25.30;99.90;;;;;;5152895;27;20007;-72
2022/10/04 06:16:19;;;;;;;;;;;25.40;99.90;;;;;;5151976;27;19919;-72
2022/10/04 06:18:55;;;;;;;;;;;25.30;99.90;;;;;;5153222;27;19907;-73
2022/10/04 06:21:24;;;;;;;;;;;25.80;99.90;;;;;;5135218;27;20255;-73
2022/10/04 06:23:53;;;;;;;;;;;26.30;99.90;;;;;;5135028;27;20361;-73
2022/10/04 06:26:23;;;;;;;;;;;26.60;99.90;;;;;;5153675;27;19903;-72
2022/10/04 06:28:55;;;;;;;;;;;27.20;99.90;;;;;;5153640;27;19970;-72
2022/10/04 06:31:37;;;;;;;;;;;27.80;99.90;;;;;;5154074;27;20386;-73
2022/10/04 06:34:02;;;;;;;;;;;27.80;99.90;;;;;;5153797;27;19950;-73
2022/10/04 06:36:47;;;;;;;;;;;27.90;99.90;;;;;;5153883;27;20363;-72
2022/10/04 06:39:12;;;;;;;;;;;27.80;99.90;;;;;;5153630;27;19991;-73
2022/10/04 06:41:44;;;;;;;;;;;28.00;99.90;;;;;;5153977;27;19931;-73
2022/10/04 06:44:15;;;;;;;;;;;28.10;99.90;;;;;;5153540;27;19997;-73
2022/10/04 06:46:48;;;;;;;;;;;28.80;99.90;;;;;;5155465;27;19993;-72
2022/10/04 06:49:31;;;;;;;;;;;29.00;99.90;;;;;;5157804;27;20357;-73
2022/10/04 06:52:17;;;;;;;;;;;28.80;99.90;;;;;;5155899;27;20274;-73
2022/10/04 06:54:42;;;;;;;;;;;28.90;99.90;;;;;;5138520;27;19957;-73
2022/10/04 06:57:30;;;;;;;;;;;28.80;99.90;;;;;;5138445;27;20291;-73
2022/10/04 07:00:14;;;;;;;;;;;28.90;99.90;;;;;;5157533;27;19903;-72
2022/10/04 07:02:59;;;;;;;;;;;29.30;99.90;;;;;;5138627;27;19909;-73
2022/10/04 07:05:31;;;;;;;;;;;29.90;99.90;;;;;;5138497;27;20274;-73
2022/10/04 07:08:07;;;;;;;;;;;30.50;99.90;;;;;;5132702;27;19907;-70
2022/10/04 07:10:54;;;;;;;;;;;31.40;99.90;;;;;;5116982;27;19920;-73
2022/10/04 07:13:27;;;;;;;;;;;31.70;99.90;;;;;;5115637;28;19910;-73
2022/10/04 07:16:25;;;;;;;;;;;32.20;99.90;;;;;;5113348;27;19916;-73
2022/10/04 07:19:09;;;;;;;;;;;32.60;99.90;;;;;;5101560;27;20002;-73
2022/10/04 07:21:39;;;;;;;;;;;32.60;99.90;;;;;;5136585;27;20048;-72
2022/10/04 07:24:08;;;;;;;;;;;30.90;99.90;;;;;;5136011;27;20337;-72
2022/10/04 07:26:43;;;;;;;;;;;29.80;99.90;;;;;;5136298;27;19926;-72
2022/10/04 07:29:19;;;;;;;;;;;28.10;99.90;;;;;;5136043;27;19957;-72
2022/10/04 07:31:46;;;;;;;;;;;27.50;99.90;;;;;;5135902;27;20006;-71
2022/10/04 07:34:24;;;;;;;;;;;27.10;99.90;;;;;;5135927;27;19983;-72
2022/10/04 07:36:54;;;;;;;;;;;26.60;99.90;;;;;;5136335;27;19904;-72
2022/10/04 07:39:19;;;;;;;;;;;26.30;99.90;;;;;;5135824;27;19958;-73
2022/10/04 07:41:51;;;;;;;;;;;26.30;99.90;;;;;;5135610;27;19903;-73
2022/10/04 07:44:27;;;;;;;;;;;26.50;99.90;;;;;;5135746;27;19956;-72
2022/10/04 07:46:58;;;;;;;;;;;26.80;99.90;;;;;;5134048;27;19954;-73
2022/10/04 07:49:38;;;;;;;;;;;27.00;99.90;;;;;;5133557;27;20007;-72
2022/10/04 07:52:07;;;;;;;;;;;27.40;99.90;;;;;;5134939;27;19915;-71
2022/10/04 07:54:42;;;;;;;;;;;27.30;99.90;;;;;;5134907;27;20431;-72
2022/10/04 07:57:16;;;;;;;;;;;26.90;99.90;;;;;;5135248;27;19990;-71
2022/10/04 07:59:51;;;;;;;;;;;27.00;99.90;;;;;;5134425;27;20335;-69
2022/10/04 08:02:21;;;;;;;;;;;26.80;99.90;;;;;;5135240;27;19946;-71
2022/10/04 08:05:01;;;;;;;;;;;26.90;99.90;;;;;;5134698;27;19903;-71
2022/10/04 08:07:42;;;;;;;;;;;27.20;99.90;;;;;;5150153;27;19994;-71
2022/10/04 08:10:14;;;;;;;;;;;27.70;99.90;;;;;;5132919;27;19962;-72
2022/10/04 08:12:51;;;;;;;;;;;28.10;99.90;;;;;;5134364;27;19911;-72
2022/10/04 08:15:27;;;;;;;;;;;28.30;99.90;;;;;;5134205;27;19908;-72
2022/10/04 08:18:02;;;;;;;;;;;28.20;99.90;;;;;;5133759;27;19907;-72
2022/10/04 08:20:35;;;;;;;;;;;28.20;99.90;;;;;;5135119;27;19919;-73
2022/10/04 08:23:15;;;;;;;;;;;28.30;99.90;;;;;;5135093;27;19903;-70
2022/10/04 08:25:44;;;;;;;;;;;28.40;99.90;;;;;;5133820;27;20267;-72
2022/10/04 08:31:23;;;;;;;;;;;28.60;99.90;;;;;;5134235;27;19918;-71
2022/10/04 08:34:14;;;;;;;;;;;28.90;99.90;;;;;;5134792;27;20271;-72
2022/10/04 08:36:58;;;;;;;;;;;28.90;99.90;;;;;;5134333;27;19903;-71
2022/10/04 08:39:27;;;;;;;;;;;28.70;99.90;;;;;;5134624;27;19914;-71
2022/10/04 08:42:03;;;;;;;;;;;29.00;99.90;;;;;;5134192;27;19919;-71
2022/10/04 08:44:32;;;;;;;;;;;29.20;99.90;;;;;;5134142;27;20251;-71
2022/10/04 08:46:58;;;;;;;;;;;29.50;99.90;;;;;;5132952;27;19990;-71
2022/10/04 08:49:44;;;;;;;;;;;29.80;99.90;;;;;;5132746;27;20007;-71
2022/10/04 08:52:25;;;;;;;;;;;29.70;99.90;;;;;;5122568;27;19907;-72
2022/10/04 08:55:06;;;;;;;;;;;29.80;99.90;;;;;;5133749;27;19903;-71
2022/10/04 08:57:35;;;;;;;;;;;29.30;99.90;;;;;;5132332;27;20054;-70
2022/10/04 09:00:14;;;;;;;;;;;29.10;99.90;;;;;;5133648;27;19909;-71
2022/10/04 09:02:40;;;;;;;;;;;28.90;99.90;;;;;;5134001;27;20006;-73
2022/10/04 09:05:17;;;;;;;;;;;28.80;99.90;;;;;;5133575;27;19939;-72
2022/10/04 09:07:53;;;;;;;;;;;28.60;99.90;;;;;;5134433;27;19990;-73
2022/10/04 09:10:22;;;;;;;;;;;28.90;99.90;;;;;;5131951;27;19954;-72
2022/10/04 09:12:49;;;;;;;;;;;28.80;99.90;;;;;;5133862;27;19903;-73
2022/10/04 09:15:15;;;;;;;;;;;28.50;99.90;;;;;;5131880;27;19971;-72
2022/10/04 09:17:41;;;;;;;;;;;28.30;99.90;;;;;;5133934;27;19907;-72
2022/10/04 09:20:20;;;;;;;;;;;28.00;99.90;;;;;;5134105;27;19948;-72
2022/10/04 09:22:47;;;;;;;;;;;28.10;99.90;;;;;;5134221;27;19903;-73
2022/10/04 09:25:30;;;;;;;;;;;28.30;99.90;;;;;;5133541;27;19904;-73
2022/10/04 09:28:14;;;;;;;;;;;28.40;99.90;;;;;;5133600;27;19903;-73
2022/10/04 09:30:39;;;;;;;;;;;28.80;99.90;;;;;;5133714;27;19934;-72
2022/10/04 09:33:05;;;;;;;;;;;29.00;99.90;;;;;;5133563;27;20316;-72
2022/10/04 09:35:31;;;;;;;;;;;29.00;99.90;;;;;;5133672;28;19993;-71
2022/10/04 09:37:57;;;;;;;;;;;29.30;99.90;;;;;;5133993;28;19903;-72
2022/10/04 09:40:41;;;;;;;;;;;29.50;99.90;;;;;;5133483;28;19907;-72
2022/10/04 09:43:07;;;;;;;;;;;29.50;99.90;;;;;;5133907;28;20093;-70
2022/10/04 09:45:48;;;;;;;;;;;29.60;99.90;;;;;;5134164;27;19903;-69
2022/10/04 09:48:25;;;;;;;;;;;29.60;99.90;;;;;;5133901;27;20014;-71
2022/10/04 09:50:51;;;;;;;;;;;29.50;99.90;;;;;;5133326;27;19915;-72
2022/10/04 09:53:45;;;;;;;;;;;29.50;99.90;;;;;;5133219;27;19979;-73
2022/10/04 09:56:22;;;;;;;;;;;29.60;99.90;;;;;;5132367;27;19914;-72
2022/10/04 09:59:07;;;;;;;;;;;29.80;99.90;;;;;;5132895;27;19911;-71
2022/10/04 10:02:01;;;;;;;;;;;29.60;99.90;;;;;;5132602;27;19914;-68
2022/10/04 10:04:40;;;;;;;;;;;29.30;99.90;;;;;;5133013;27;19955;-71
2022/10/04 10:07:21;;;;;;;;;;;29.20;99.90;;;;;;5132755;27;20316;-74
2022/10/04 10:16:03;;;;;;;;;;;28.50;99.90;;;;;;5132780;28;19968;-75
2022/10/04 10:18:47;;;;;;;;;;;28.60;99.90;;;;;;5133189;27;19903;-75
2022/10/04 10:21:32;;;;;;;;;;;28.50;99.90;;;;;;5132946;27;20010;-75
2022/10/04 10:24:02;;;;;;;;;;;28.70;99.90;;;;;;5136956;27;20064;-73
2022/10/04 10:26:28;;;;;;;;;;;28.90;99.90;;;;;;5137241;27;19903;-74
2022/10/04 10:29:10;;;;;;;;;;;28.40;99.90;;;;;;5136326;27;19960;-73
2022/10/04 10:31:50;;;;;;;;;;;28.10;99.90;;;;;;5136576;27;19918;-74
2022/10/04 10:34:30;;;;;;;;;;;27.80;99.90;;;;;;5136667;27;20005;-74
2022/10/04 10:37:14;;;;;;;;;;;27.80;99.90;;;;;;5137108;27;19903;-74
2022/10/04 10:39:43;;;;;;;;;;;27.60;99.90;;;;;;5136567;27;19910;-75
2022/10/04 10:42:28;;;;;;;;;;;27.50;99.90;;;;;;5136732;27;19909;-75
2022/10/04 10:45:09;;;;;;;;;;;27.50;99.90;;;;;;5136255;27;19914;-73
2022/10/04 10:47:35;;;;;;;;;;;27.80;99.90;;;;;;5136421;27;19904;-74
2022/10/04 10:50:19;;;;;;;;;;;27.60;99.90;;;;;;5135153;27;19907;-74
2022/10/04 10:52:45;;;;;;;;;;;27.60;99.90;;;;;;5134429;27;20369;-74
2022/10/04 10:55:26;;;;;;;;;;;27.60;99.90;;;;;;5136143;27;19903;-74
2022/10/04 10:57:52;;;;;;;;;;;27.60;99.90;;;;;;5136086;27;19919;-74
2022/10/04 11:00:34;;;;;;;;;;;27.40;99.90;;;;;;5135866;27;19904;-74
2022/10/04 11:03:01;;;;;;;;;;;27.00;99.90;;;;;;5135512;27;19933;-74
2022/10/04 11:05:27;;;;;;;;;;;27.00;99.90;;;;;;5133337;27;20357;-74
2022/10/04 11:07:56;;;;;;;;;;;27.20;99.90;;;;;;5136041;27;19903;-75
2022/10/04 11:10:52;;;;;;;;;;;27.30;99.90;;;;;;5134404;27;20069;-75
2022/10/04 11:13:25;;;;;;;;;;;27.60;99.90;;;;;;5136214;27;19903;-75
2022/10/04 11:16:10;;;;;;;;;;;27.80;99.90;;;;;;5134267;27;19934;-76
2022/10/04 11:18:54;;;;;;;;;;;27.80;99.90;;;;;;5136468;27;20311;-75
2022/10/04 11:21:39;;;;;;;;;;;28.00;99.90;;;;;;5136096;27;20374;-75
2022/10/04 11:24:14;;;;;;;;;;;28.10;99.90;;;;;;5133591;27;19964;-75
2022/10/04 11:27:00;;;;;;;;;;;28.20;99.90;;;;;;5134197;27;20354;-75
2022/10/04 11:29:35;;;;;;;;;;;28.20;99.90;;;;;;5135852;27;20002;-76
2022/10/04 11:32:01;;;;;;;;;;;28.10;99.90;;;;;;5135075;27;19911;-76
2022/10/04 11:34:26;;;;;;;;;;;28.20;99.90;;;;;;5135216;27;19903;-77
2022/10/04 11:37:16;;;;;;;;;;;28.30;99.90;;;;;;5135555;27;19960;-73
2022/10/04 11:39:43;;;;;;;;;;;28.10;99.90;;;;;;5135405;27;20035;-72
2022/10/04 11:42:10;;;;;;;;;;;28.20;99.90;;;;;;5134908;27;19950;-73
2022/10/04 11:44:53;;;;;;;;;;;28.00;99.90;;;;;;5135241;27;20303;-73
2022/10/04 11:47:27;;;;;;;;;;;27.50;99.90;;;;;;5134910;27;19914;-73
2022/10/04 11:50:21;;;;;;;;;;;27.40;99.90;;;;;;5134964;27;19907;-72
2022/10/04 11:52:57;;;;;;;;;;;27.20;99.90;;;;;;5132454;27;19904;-72
2022/10/04 11:55:33;;;;;;;;;;;27.50;99.90;;;;;;5135211;27;19948;-76
2022/10/04 11:58:13;;;;;;;;;;;27.70;99.90;;;;;;5133705;27;20048;-74
2022/10/04 12:04:04;;;;;;;;;;;27.20;99.90;;;;;;5134598;27;20279;-74
2022/10/04 12:06:36;;;;;;;;;;;27.30;99.90;;;;;;5134288;27;19904;-75
2022/10/04 12:09:13;;;;;;;;;;;27.50;99.90;;;;;;5135247;27;19904;-74
2022/10/04 12:15:02;;;;;;;;;;;27.10;99.90;;;;;;5110650;27;19917;-73
2022/10/04 12:17:42;;;;;;;;;;;27.00;99.90;;;;;;5114614;28;20107;-73
2022/10/04 12:20:20;;;;;;;;;;;26.80;99.90;;;;;;5114840;28;20332;-73
2022/10/04 12:22:49;;;;;;;;;;;27.00;99.90;;;;;;5114648;28;19907;-72
2022/10/04 12:25:41;;;;;;;;;;;27.20;99.90;;;;;;5114486;28;19915;-73
2022/10/04 12:28:16;;;;;;;;;;;27.50;99.90;;;;;;5080031;28;20048;-74
2022/10/04 12:30:45;;;;;;;;;;;27.60;99.90;;;;;;5114658;28;19918;-72
2022/10/04 12:33:13;;;;;;;;;;;27.70;99.90;;;;;;5114320;28;19903;-74
2022/10/04 12:35:47;;;;;;;;;;;27.70;99.90;;;;;;5114719;28;19903;-74
2022/10/04 12:38:21;;;;;;;;;;;27.80;99.90;;;;;;5114479;28;19907;-74
2022/10/04 12:40:52;;;;;;;;;;;27.80;99.90;;;;;;5114621;28;19911;-73
2022/10/04 12:43:26;;;;;;;;;;;28.00;99.90;;;;;;5096342;28;19922;-73
2022/10/04 12:46:11;;;;;;;;;;;28.00;99.90;;;;;;5096382;28;19931;-74
2022/10/04 12:48:43;;;;;;;;;;;28.10;99.90;;;;;;5115122;28;19919;-73
2022/10/04 12:51:16;;;;;;;;;;;28.20;99.90;;;;;;5095882;28;19912;-73
2022/10/04 12:53:46;;;;;;;;;;;28.30;99.90;;;;;;5095713;28;20068;-73
2022/10/04 12:56:27;;;;;;;;;;;28.20;99.90;;;;;;5114404;28;19930;-74
2022/10/04 12:59:02;;;;;;;;;;;28.10;99.90;;;;;;5114159;28;19918;-74
2022/10/04 13:01:28;;;;;;;;;;;28.30;99.90;;;;;;5095594;28;19903;-73
2022/10/04 13:03:57;;;;;;;;;;;28.20;99.90;;;;;;5095696;28;19999;-73
2022/10/04 13:06:30;;;;;;;;;;;28.40;99.90;;;;;;5095570;28;19904;-74
2022/10/04 13:08:58;;;;;;;;;;;28.40;99.90;;;;;;5114292;28;20351;-73
2022/10/04 13:11:43;;;;;;;;;;;28.40;99.90;;;;;;5113622;28;20005;-73
2022/10/04 13:14:27;;;;;;;;;;;27.90;99.90;;;;;;5095406;28;19911;-73
2022/10/04 13:17:12;;;;;;;;;;;27.70;99.90;;;;;;5131729;27;19915;-74
2022/10/04 13:19:40;;;;;;;;;;;27.50;99.90;;;;;;5133334;27;19959;-73
2022/10/04 13:22:12;;;;;;;;;;;27.60;99.90;;;;;;5135086;27;19918;-74
2022/10/04 13:24:57;;;;;;;;;;;27.80;99.90;;;;;;5134735;27;20048;-74
2022/10/04 13:27:37;;;;;;;;;;;27.70;99.90;;;;;;5134988;27;19933;-75
2022/10/04 13:30:05;;;;;;;;;;;27.70;99.90;;;;;;5134589;27;19911;-74
2022/10/04 13:32:55;;;;;;;;;;;27.80;99.90;;;;;;5134434;27;19911;-74
2022/10/04 13:35:37;;;;;;;;;;;27.80;99.90;;;;;;5134882;27;19989;-74
2022/10/04 13:38:23;;;;;;;;;;;27.20;99.90;;;;;;5133102;28;19903;-74
2022/10/04 13:41:08;;;;;;;;;;;27.10;99.90;;;;;;5134885;27;19925;-74
2022/10/04 13:43:57;;;;;;;;;;;27.10;99.90;;;;;;5132742;28;20363;-74
2022/10/04 13:46:41;;;;;;;;;;;27.20;99.90;;;;;;5125674;28;19997;-74
2022/10/04 13:49:16;;;;;;;;;;;27.30;99.90;;;;;;5134708;28;20328;-74
2022/10/04 13:58:13;;;;;;;;;;;27.60;99.90;;;;;;5138188;27;19910;-76
2022/10/04 14:00:42;;;;;;;;;;;27.80;99.90;;;;;;5125560;27;20227;-74
2022/10/04 14:06:26;;;;;;;;;;;27.90;99.90;;;;;;5137100;27;19945;-74
2022/10/04 14:08:55;;;;;;;;;;;28.00;99.90;;;;;;5138138;27;19911;-75
2022/10/04 14:11:40;;;;;;;;;;;28.10;99.90;;;;;;5136021;27;19911;-75
2022/10/04 14:14:25;;;;;;;;;;;28.00;99.90;;;;;;5137682;27;19957;-75
2022/10/04 14:16:50;;;;;;;;;;;27.90;99.90;;;;;;5135256;27;19915;-75
2022/10/04 14:19:24;;;;;;;;;;;27.90;99.90;;;;;;5135924;27;19944;-75
2022/10/04 14:21:58;;;;;;;;;;;27.80;99.90;;;;;;5137441;27;19930;-74
2022/10/04 14:24:44;;;;;;;;;;;27.70;99.90;;;;;;5137906;27;19933;-74
2022/10/04 14:27:16;;;;;;;;;;;27.80;99.90;;;;;;5137599;27;20065;-74
2022/10/04 14:30:00;;;;;;;;;;;27.70;99.90;;;;;;5137170;27;19955;-74
2022/10/04 14:32:27;;;;;;;;;;;27.20;99.90;;;;;;5135548;27;19903;-74
2022/10/04 14:34:54;;;;;;;;;;;27.00;99.90;;;;;;5137369;27;19915;-75
2022/10/04 14:37:26;;;;;;;;;;;27.00;99.90;;;;;;5137248;27;20060;-74
2022/10/04 14:40:00;;;;;;;;;;;26.90;99.90;;;;;;5137263;27;19903;-75
2022/10/04 14:42:49;;;;;;;;;;;26.80;99.90;;;;;;5137117;27;19904;-74
2022/10/04 14:45:23;;;;;;;;;;;26.80;99.90;;;;;;5107748;27;19904;-74
2022/10/04 14:48:07;;;;;;;;;;;26.90;99.90;;;;;;5135015;27;19942;-74
2022/10/04 14:50:36;;;;;;;;;;;27.10;99.90;;;;;;5136329;27;20389;-74
2022/10/04 14:53:05;;;;;;;;;;;26.80;99.90;;;;;;5135828;27;19964;-74
2022/10/04 14:55:33;;;;;;;;;;;26.90;99.90;;;;;;5134158;27;19926;-75
2022/10/04 14:57:59;;;;;;;;;;;26.90;99.90;;;;;;5135529;27;19990;-74
2022/10/04 15:00:45;;;;;;;;;;;26.90;99.90;;;;;;5133773;27;19961;-74
2022/10/04 15:03:37;;;;;;;;;;;26.80;99.90;;;;;;5124232;27;19997;-74
2022/10/04 15:06:11;;;;;;;;;;;26.80;99.90;;;;;;5135100;27;19903;-75
2022/10/04 15:08:55;;;;;;;;;;;26.50;99.90;;;;;;5133410;27;19911;-74
2022/10/04 15:11:34;;;;;;;;;;;26.70;99.90;;;;;;5135017;27;19918;-74
2022/10/04 15:14:03;;;;;;;;;;;26.80;99.90;;;;;;5135148;27;19903;-75
2022/10/04 15:16:44;;;;;;;;;;;26.90;99.90;;;;;;5134149;27;19922;-74
2022/10/04 15:19:19;;;;;;;;;;;27.00;99.90;;;;;;5134322;27;19988;-74
2022/10/04 15:21:54;;;;;;;;;;;27.10;99.90;;;;;;5132537;27;19907;-74